Time;durP1;ratioP1;P1;durP2;ratioP2;P2;SDS_P1;SDS_P2;PMS_P1;PMS_P2;Temp;Humidity;BMP_temperature;BMP_pressure;BME280_temperature;BME280_humidity;BME280_pressure;Samples;Min_cycle;Max_cycle;Signal;HPM_P1;HPM_P2
2021/10/02 00:31:56;;;;;;;6.57;3.60;;;10.40;99.90;;;;;;4395693;32;20149;-66
2021/10/02 00:37:29;;;;;;;5.32;3.40;;;10.40;99.90;;;;;;4408087;32;20076;-66
2021/10/02 00:45:25;;;;;;;5.70;3.60;;;10.30;99.90;;;;;;4406612;32;20083;-68
2021/10/02 00:47:55;;;;;;;5.97;3.70;;;10.30;99.90;;;;;;4407796;32;20069;-67
2021/10/02 00:50:21;;;;;;;7.28;3.62;;;10.30;99.90;;;;;;4381296;32;20153;-65
2021/10/02 00:52:48;;;;;;;5.12;3.25;;;10.30;99.90;;;;;;4406069;32;20088;-66
2021/10/02 00:55:14;;;;;;;6.72;3.87;;;10.40;99.90;;;;;;4380839;32;20538;-66
2021/10/02 00:57:41;;;;;;;6.32;3.55;;;10.30;99.90;;;;;;4380698;32;20079;-66
2021/10/02 01:00:09;;;;;;;6.97;3.70;;;10.30;99.90;;;;;;4368762;32;20089;-66
2021/10/02 01:03:21;;;;;;;5.43;3.53;;;10.40;99.90;;;;;;4380894;32;20070;-66
2021/10/02 01:06:34;;;;;;;6.25;3.55;;;10.40;99.90;;;;;;3857222;37;20078;-65
2021/10/02 01:09:16;;;;;;;6.80;3.50;;;10.40;99.90;;;;;;4398524;32;20227;-65
2021/10/02 01:12:00;;;;;;;6.07;3.28;;;10.40;99.90;;;;;;4392869;32;20092;-67
2021/10/02 01:15:06;;;;;;;5.25;3.15;;;10.30;99.90;;;;;;4407241;32;20085;-65
2021/10/02 01:17:59;;;;;;;8.00;4.03;;;10.20;99.90;;;;;;4365508;32;20168;-66
2021/10/02 01:20:50;;;;;;;6.87;3.80;;;10.30;99.90;;;;;;4408126;32;20482;-66
2021/10/02 01:23:33;;;;;;;6.28;3.90;;;10.20;99.90;;;;;;4405986;32;20535;-66
2021/10/02 01:26:49;;;;;;;6.90;4.10;;;10.20;99.90;;;;;;4418416;32;20088;-66
2021/10/02 01:29:16;;;;;;;7.65;4.00;;;10.20;99.90;;;;;;4414569;32;20081;-67
2021/10/02 01:31:54;;;;;;;5.53;3.70;;;10.20;99.90;;;;;;4390460;32;20070;-65
2021/10/02 01:34:32;;;;;;;7.47;4.05;;;10.30;99.90;;;;;;4379804;32;20085;-66
2021/10/02 01:37:11;;;;;;;5.90;3.97;;;10.20;99.90;;;;;;4391526;32;20061;-66
2021/10/02 01:47:55;;;;;;;7.28;4.10;;;10.20;99.90;;;;;;4391849;32;20177;-65
2021/10/02 01:50:36;;;;;;;7.28;4.40;;;10.10;99.90;;;;;;4390479;32;20081;-67
2021/10/02 01:53:03;;;;;;;7.18;4.18;;;10.20;99.90;;;;;;4377651;32;20070;-66
2021/10/02 01:55:30;;;;;;;7.22;4.72;;;10.20;99.90;;;;;;4377144;32;20649;-67
2021/10/02 01:58:03;;;;;;;7.72;4.22;;;10.20;99.90;;;;;;4364590;32;20467;-66
2021/10/02 02:00:30;;;;;;;7.30;4.50;;;10.10;99.90;;;;;;4377491;32;20081;-66
2021/10/02 02:03:00;;;;;;;10.32;5.00;;;10.10;99.90;;;;;;4390737;32;20085;-64
2021/10/02 02:05:27;;;;;;;8.35;4.75;;;10.20;99.90;;;;;;4389927;32;20103;-66
2021/10/02 02:07:57;;;;;;;7.62;4.70;;;10.10;99.90;;;;;;4389884;32;20085;-68
2021/10/02 02:10:24;;;;;;;8.10;4.80;;;10.20;99.90;;;;;;4378150;32;20066;-66
2021/10/02 02:12:51;;;;;;;6.82;4.55;;;10.20;99.90;;;;;;4377223;32;20081;-66
2021/10/02 02:15:17;;;;;;;7.28;4.62;;;10.20;99.90;;;;;;4376000;32;20104;-66
2021/10/02 02:17:46;;;;;;;9.18;4.60;;;10.10;99.90;;;;;;4392180;32;20093;-66
2021/10/02 02:20:25;;;;;;;7.12;4.10;;;10.10;99.90;;;;;;4367562;32;20078;-66
2021/10/02 02:22:52;;;;;;;8.55;4.60;;;10.10;99.90;;;;;;4379932;32;20452;-65
2021/10/02 02:25:18;;;;;;;6.47;4.40;;;10.10;99.90;;;;;;4367480;32;20078;-66
2021/10/02 02:27:45;;;;;;;7.72;4.37;;;10.10;99.90;;;;;;4354650;32;20165;-66
2021/10/02 02:30:11;;;;;;;8.57;4.50;;;10.10;99.90;;;;;;4380082;32;20081;-66
2021/10/02 02:32:44;;;;;;;9.73;4.70;;;10.10;99.90;;;;;;4355718;32;20149;-65
2021/10/02 02:35:11;;;;;;;8.68;4.62;;;10.10;99.90;;;;;;4383802;32;20068;-66
2021/10/02 02:37:37;;;;;;;6.72;4.28;;;10.10;99.90;;;;;;4384123;32;20073;-64
2021/10/02 02:40:05;;;;;;;8.20;4.65;;;10.10;99.90;;;;;;4397455;32;20080;-65
2021/10/02 02:42:31;;;;;;;7.47;4.40;;;10.00;99.90;;;;;;4392835;32;20146;-65
2021/10/02 02:44:58;;;;;;;7.05;4.40;;;10.00;99.90;;;;;;4379365;32;20460;-65
2021/10/02 02:47:26;;;;;;;9.23;4.10;;;10.00;99.90;;;;;;4380141;32;20069;-66
2021/10/02 02:50:02;;;;;;;6.68;3.90;;;9.90;99.90;;;;;;4380131;32;20124;-65
2021/10/02 02:53:01;;;;;;;8.02;4.45;;;9.90;99.90;;;;;;4367529;32;20161;-66
2021/10/02 02:55:32;;;;;;;9.82;4.47;;;9.90;99.90;;;;;;4368174;32;20186;-66
2021/10/02 02:58:06;;;;;;;9.45;4.62;;;9.90;99.90;;;;;;4379413;32;20169;-65
2021/10/02 03:00:35;;;;;;;6.25;4.37;;;9.90;99.90;;;;;;4379577;32;20508;-66
2021/10/02 03:03:07;;;;;;;8.35;4.45;;;9.90;99.90;;;;;;4391817;32;20062;-65
2021/10/02 03:05:34;;;;;;;6.95;4.47;;;9.90;99.90;;;;;;4366929;32;20090;-65
2021/10/02 03:08:04;;;;;;;6.20;4.20;;;9.80;99.90;;;;;;4391540;32;20173;-66
2021/10/02 03:10:31;;;;;;;7.60;4.28;;;9.80;99.90;;;;;;4379159;32;20070;-66
2021/10/02 03:13:10;;;;;;;5.82;3.92;;;9.80;99.90;;;;;;4354636;32;20164;-66
2021/10/02 03:15:37;;;;;;;7.82;4.40;;;9.70;99.90;;;;;;4378720;32;20162;-65
2021/10/02 03:18:04;;;;;;;6.95;4.20;;;9.80;99.90;;;;;;4366612;32;20162;-66
2021/10/02 03:20:30;;;;;;;6.55;4.10;;;9.70;99.90;;;;;;4365979;32;20070;-66
2021/10/02 03:22:56;;;;;;;6.28;3.80;;;9.70;99.90;;;;;;4366332;32;20182;-66
2021/10/02 03:25:30;;;;;;;5.87;3.67;;;9.70;99.90;;;;;;4391298;32;20070;-65
2021/10/02 03:28:01;;;;;;;8.10;3.78;;;9.70;99.90;;;;;;4378385;32;20526;-66
2021/10/02 03:30:29;;;;;;;6.82;4.53;;;9.70;99.90;;;;;;4379008;32;20144;-67
2021/10/02 03:32:56;;;;;;;6.62;4.37;;;9.60;99.90;;;;;;4366140;32;20095;-67
2021/10/02 03:35:22;;;;;;;6.35;4.00;;;9.70;99.90;;;;;;4378609;32;20082;-66
2021/10/02 03:37:49;;;;;;;7.43;4.05;;;9.70;99.90;;;;;;4378550;32;20105;-66
2021/10/02 03:40:17;;;;;;;5.70;3.83;;;9.70;99.90;;;;;;4366144;32;20078;-66
2021/10/02 03:42:44;;;;;;;10.18;4.30;;;9.70;99.90;;;;;;4378942;32;20088;-66
2021/10/02 03:45:11;;;;;;;7.60;4.25;;;9.80;99.90;;;;;;4390967;32;20165;-66
2021/10/02 03:47:37;;;;;;;10.13;4.70;;;9.70;99.90;;;;;;4365993;32;20092;-66
2021/10/02 03:50:05;;;;;;;8.02;4.55;;;9.70;99.90;;;;;;4365739;32;20080;-68
2021/10/02 03:52:31;;;;;;;6.45;4.20;;;9.80;99.90;;;;;;4378833;32;20515;-66
2021/10/02 03:54:58;;;;;;;6.60;3.90;;;9.70;99.90;;;;;;4365949;32;20080;-65
2021/10/02 03:57:24;;;;;;;8.10;4.10;;;9.70;99.90;;;;;;4378094;32;20157;-66
2021/10/02 03:59:50;;;;;;;9.55;3.60;;;9.70;99.90;;;;;;4365942;32;20089;-66
2021/10/02 04:02:16;;;;;;;5.75;4.00;;;9.80;99.90;;;;;;4390625;32;20163;-66
2021/10/02 04:04:42;;;;;;;5.82;3.85;;;9.70;99.90;;;;;;4391709;32;20094;-66
2021/10/02 04:07:09;;;;;;;8.48;5.28;;;9.80;99.90;;;;;;4392198;32;20097;-66
2021/10/02 04:09:35;;;;;;;7.55;4.65;;;9.70;99.90;;;;;;4390902;32;20081;-66
2021/10/02 04:12:01;;;;;;;8.23;4.50;;;9.70;99.90;;;;;;4378246;32;20163;-65
2021/10/02 04:14:27;;;;;;;8.02;5.18;;;9.70;99.90;;;;;;4378039;32;20081;-65
2021/10/02 04:16:54;;;;;;;10.18;5.53;;;9.70;99.90;;;;;;4377838;32;20545;-66
2021/10/02 04:19:20;;;;;;;7.78;4.82;;;9.60;99.90;;;;;;4390385;32;20082;-65
2021/10/02 04:21:47;;;;;;;8.00;5.05;;;9.70;99.90;;;;;;4365241;32;20081;-66
2021/10/02 04:24:13;;;;;;;8.07;5.20;;;9.70;99.90;;;;;;4390217;32;20077;-66
2021/10/02 04:26:39;;;;;;;7.65;4.90;;;9.70;99.90;;;;;;4378106;32;20598;-66
2021/10/02 04:29:05;;;;;;;7.65;5.18;;;9.70;99.90;;;;;;4390411;32;20174;-66
2021/10/02 04:31:31;;;;;;;9.30;4.57;;;9.70;99.90;;;;;;4390233;32;20074;-65
2021/10/02 04:33:58;;;;;;;8.98;5.05;;;9.80;99.90;;;;;;4365124;32;20078;-66
2021/10/02 04:36:24;;;;;;;8.65;4.95;;;9.90;99.90;;;;;;4391083;32;20081;-66
2021/10/02 04:38:50;;;;;;;8.02;5.32;;;9.80;99.90;;;;;;4391391;32;20232;-65
2021/10/02 04:41:16;;;;;;;6.55;4.85;;;9.70;99.90;;;;;;4377710;32;20104;-66
2021/10/02 04:43:44;;;;;;;8.05;5.15;;;9.80;99.90;;;;;;4377578;32;20529;-65
2021/10/02 04:46:17;;;;;;;8.20;5.20;;;9.80;99.90;;;;;;4377967;32;20073;-66
2021/10/02 04:48:43;;;;;;;10.68;5.15;;;9.90;99.90;;;;;;4378177;32;20093;-66
2021/10/02 04:51:09;;;;;;;8.27;5.43;;;9.90;99.90;;;;;;4390700;32;20598;-65
2021/10/02 04:53:36;;;;;;;10.13;5.87;;;9.90;99.90;;;;;;4390331;32;20193;-66
2021/10/02 04:56:05;;;;;;;9.45;5.20;;;10.00;99.90;;;;;;4377763;32;20078;-66
2021/10/02 04:58:32;;;;;;;10.77;5.43;;;10.10;99.90;;;;;;4365978;32;20573;-66
2021/10/02 05:00:58;;;;;;;7.28;5.20;;;10.00;99.90;;;;;;4377420;32;20089;-66
2021/10/02 05:03:25;;;;;;;7.43;5.25;;;10.00;99.90;;;;;;4390568;32;20508;-66
2021/10/02 05:05:51;;;;;;;7.57;4.60;;;10.10;99.90;;;;;;4364952;32;20080;-67
2021/10/02 05:08:18;;;;;;;8.25;5.10;;;10.10;99.90;;;;;;4365027;32;20142;-67
2021/10/02 05:10:44;;;;;;;13.70;8.02;;;10.30;99.90;;;;;;4377638;32;20089;-67
2021/10/02 05:13:11;;;;;;;10.13;5.50;;;10.20;99.90;;;;;;4352509;32;20078;-66
2021/10/02 05:15:37;;;;;;;7.75;5.07;;;10.30;99.90;;;;;;4389959;32;20054;-66
2021/10/02 05:18:03;;;;;;;7.97;5.30;;;10.40;99.90;;;;;;4390370;32;20507;-66
2021/10/02 05:20:30;;;;;;;9.48;5.87;;;10.50;99.90;;;;;;4378413;32;20170;-66
2021/10/02 05:22:57;;;;;;;8.68;5.37;;;10.70;99.90;;;;;;4382467;32;20075;-66
2021/10/02 05:25:24;;;;;;;8.48;5.78;;;10.80;99.90;;;;;;4393878;32;20062;-66
2021/10/02 05:27:50;;;;;;;9.15;5.62;;;10.40;99.90;;;;;;4367132;32;20160;-66
2021/10/02 05:30:17;;;;;;;6.93;4.10;;;10.30;99.90;;;;;;4352681;32;20161;-65
2021/10/02 05:32:43;;;;;;;6.97;4.00;;;10.40;99.90;;;;;;4365091;32;20105;-67
2021/10/02 05:35:09;;;;;;;6.30;4.07;;;10.50;99.90;;;;;;4377145;32;20077;-66
2021/10/02 05:37:35;;;;;;;8.98;4.55;;;10.80;99.90;;;;;;4377323;32;20101;-66
2021/10/02 05:40:02;;;;;;;6.20;4.10;;;10.80;99.90;;;;;;4377262;32;20452;-65
2021/10/02 05:42:29;;;;;;;8.27;4.20;;;11.00;99.90;;;;;;4352663;32;20097;-68
2021/10/02 05:44:55;;;;;;;5.90;4.07;;;10.70;99.90;;;;;;4389687;32;20508;-65
2021/10/02 05:47:21;;;;;;;5.28;3.30;;;10.70;99.90;;;;;;4377222;32;20073;-66
2021/10/02 05:49:47;;;;;;;6.80;3.70;;;10.90;99.90;;;;;;4389537;32;20083;-65
2021/10/02 05:52:13;;;;;;;7.57;3.70;;;10.90;99.90;;;;;;4379168;32;20142;-66
2021/10/02 05:54:40;;;;;;;6.35;4.22;;;11.00;99.90;;;;;;4392210;32;20473;-65
2021/10/02 05:57:07;;;;;;;7.53;4.15;;;11.00;99.90;;;;;;4379824;32;20589;-65
2021/10/02 05:59:33;;;;;;;6.32;3.87;;;11.20;99.90;;;;;;4367664;32;20177;-65
2021/10/02 06:02:00;;;;;;;6.47;4.12;;;11.20;99.90;;;;;;4380016;32;20078;-65
2021/10/02 06:04:26;;;;;;;7.32;4.62;;;11.20;99.90;;;;;;4392348;32;20539;-65
2021/10/02 06:06:52;;;;;;;8.07;4.32;;;11.10;99.90;;;;;;4379956;32;20070;-66
2021/10/02 06:09:19;;;;;;;6.70;4.75;;;11.20;99.90;;;;;;4380022;32;20074;-65
2021/10/02 06:11:45;;;;;;;8.07;5.10;;;10.90;99.90;;;;;;4379490;32;20085;-66
2021/10/02 06:14:12;;;;;;;7.03;4.40;;;10.90;99.90;;;;;;4355359;32;20093;-66
2021/10/02 06:16:39;;;;;;;8.23;4.50;;;11.10;99.90;;;;;;4367480;32;20081;-64
2021/10/02 06:19:06;;;;;;;7.85;4.57;;;11.20;99.90;;;;;;4380012;32;20070;-66
2021/10/02 06:21:32;;;;;;;8.02;4.35;;;11.30;99.90;;;;;;4379673;32;20516;-65
2021/10/02 06:24:00;;;;;;;8.52;5.00;;;11.50;99.90;;;;;;4366895;32;20077;-64
2021/10/02 06:26:27;;;;;;;6.85;4.15;;;11.80;99.90;;;;;;4391998;32;20070;-66
2021/10/02 06:28:53;;;;;;;9.77;5.00;;;11.40;99.90;;;;;;4379815;32;20073;-65
2021/10/02 06:31:20;;;;;;;8.82;5.37;;;11.40;99.90;;;;;;4367364;32;20184;-64
2021/10/02 06:33:47;;;;;;;7.07;4.05;;;11.10;99.90;;;;;;4367246;32;20065;-65
2021/10/02 06:36:13;;;;;;;7.90;4.93;;;11.10;99.90;;;;;;4392415;32;20085;-65
2021/10/02 06:38:40;;;;;;;10.52;5.07;;;11.20;99.90;;;;;;4393574;32;20069;-65
2021/10/02 06:41:07;;;;;;;8.80;5.32;;;11.20;99.90;;;;;;4379453;32;20078;-65
2021/10/02 06:43:33;;;;;;;9.02;5.18;;;11.20;99.90;;;;;;4391881;32;20081;-65
2021/10/02 06:46:00;;;;;;;11.27;6.43;;;11.30;99.90;;;;;;4367035;32;20070;-65
2021/10/02 06:48:27;;;;;;;9.82;6.72;;;11.20;99.90;;;;;;4379558;32;20149;-65
2021/10/02 06:50:53;;;;;;;7.65;4.68;;;11.10;99.90;;;;;;4392079;32;20082;-64
2021/10/02 06:53:19;;;;;;;9.27;5.00;;;11.10;99.90;;;;;;4391800;32;20096;-67
2021/10/02 06:55:45;;;;;;;10.18;5.90;;;11.20;99.90;;;;;;4379422;32;20097;-66
2021/10/02 06:58:12;;;;;;;9.52;5.78;;;11.30;99.90;;;;;;4379503;32;20077;-66
2021/10/02 07:00:38;;;;;;;9.40;5.78;;;11.30;99.90;;;;;;4391790;32;20070;-64
2021/10/02 07:03:06;;;;;;;9.63;5.35;;;11.70;99.90;;;;;;4378836;32;20068;-65
2021/10/02 07:05:32;;;;;;;10.63;6.22;;;11.70;99.90;;;;;;4366282;32;20508;-65
2021/10/02 07:07:59;;;;;;;9.35;5.95;;;11.50;99.90;;;;;;4378709;32;20157;-66
2021/10/02 07:10:25;;;;;;;14.32;6.85;;;11.60;99.90;;;;;;4366669;32;20077;-66
2021/10/02 07:12:53;;;;;;;10.15;6.35;;;11.60;99.90;;;;;;4391479;32;20089;-66
2021/10/02 07:15:20;;;;;;;11.00;6.10;;;11.50;99.90;;;;;;4379083;32;20162;-65
2021/10/02 07:17:46;;;;;;;8.85;5.47;;;11.40;99.90;;;;;;4378854;32;20065;-65
2021/10/02 07:20:14;;;;;;;11.60;5.45;;;11.30;99.90;;;;;;4378536;32;20089;-65
2021/10/02 07:22:41;;;;;;;14.87;7.68;;;11.30;99.90;;;;;;4378296;32;20570;-67
2021/10/02 07:25:11;;;;;;;9.93;5.95;;;11.30;99.90;;;;;;4391251;32;20504;-65
2021/10/02 07:27:38;;;;;;;10.65;5.55;;;11.30;99.90;;;;;;4366515;32;20094;-64
2021/10/02 07:30:05;;;;;;;7.80;4.82;;;11.50;99.90;;;;;;4366382;32;20082;-65
2021/10/02 07:32:32;;;;;;;8.27;4.90;;;11.70;99.90;;;;;;4366130;32;20527;-66
2021/10/02 07:34:58;;;;;;;10.40;5.03;;;11.90;99.90;;;;;;4354152;32;20082;-65
2021/10/02 07:37:25;;;;;;;9.55;5.87;;;11.80;99.90;;;;;;4366264;32;20096;-66
2021/10/02 07:39:51;;;;;;;8.63;5.07;;;11.80;99.90;;;;;;4365601;32;20445;-66
2021/10/02 07:42:18;;;;;;;12.80;5.55;;;11.80;99.90;;;;;;4353583;32;20135;-65
2021/10/02 07:44:49;;;;;;;8.68;5.47;;;11.80;99.90;;;;;;4378836;32;20147;-65
2021/10/02 07:47:17;;;;;;;8.30;5.05;;;11.50;99.90;;;;;;4379165;32;20093;-65
2021/10/02 07:49:43;;;;;;;6.00;4.15;;;11.20;99.90;;;;;;4379745;32;20073;-65
2021/10/02 07:52:09;;;;;;;6.90;3.97;;;11.30;99.90;;;;;;4390967;32;20086;-65
2021/10/02 07:54:36;;;;;;;8.38;4.03;;;11.30;99.90;;;;;;4390811;32;20082;-64
2021/10/02 07:57:02;;;;;;;8.63;4.50;;;11.50;99.90;;;;;;4390900;32;20177;-65
2021/10/02 07:59:29;;;;;;;8.85;4.57;;;11.60;99.90;;;;;;4390498;32;20516;-66
2021/10/02 08:01:57;;;;;;;6.12;3.70;;;11.40;99.90;;;;;;4378052;32;20074;-66
2021/10/02 08:04:23;;;;;;;6.57;4.18;;;11.30;99.90;;;;;;4391376;32;20089;-65
2021/10/02 08:06:49;;;;;;;7.30;4.95;;;11.20;99.90;;;;;;4390818;32;20084;-64
2021/10/02 08:09:16;;;;;;;8.63;5.47;;;11.20;99.90;;;;;;4366380;32;20565;-64
2021/10/02 08:11:43;;;;;;;6.78;4.30;;;10.90;99.90;;;;;;4405917;32;20102;-66
2021/10/02 08:14:10;;;;;;;7.20;4.30;;;11.00;99.90;;;;;;4395788;32;20481;-64
2021/10/02 08:16:37;;;;;;;7.85;5.10;;;11.10;99.90;;;;;;4378304;32;20097;-64
2021/10/02 08:19:05;;;;;;;6.55;4.72;;;10.90;99.90;;;;;;4365884;32;20093;-65
2021/10/02 08:21:32;;;;;;;3.78;2.70;;;10.70;99.90;;;;;;4366309;32;20077;-65
2021/10/02 08:23:58;;;;;;;7.12;3.33;;;10.80;99.90;;;;;;4352755;32;20072;-66
2021/10/02 08:26:27;;;;;;;6.28;3.67;;;10.70;99.90;;;;;;4390269;32;20614;-65
2021/10/02 08:28:53;;;;;;;7.45;4.75;;;11.00;99.90;;;;;;4390596;32;20460;-65
2021/10/02 08:31:22;;;;;;;8.52;5.20;;;10.80;99.90;;;;;;4390543;32;20068;-65
2021/10/02 08:33:49;;;;;;;13.93;7.97;;;10.90;99.90;;;;;;4349240;32;20093;-69
2021/10/02 08:36:15;;;;;;;14.05;8.50;;;10.50;99.90;;;;;;4374924;32;20089;-68
2021/10/02 08:38:42;;;;;;;12.82;6.05;;;10.70;99.90;;;;;;4349101;32;20481;-64
2021/10/02 08:41:09;;;;;;;8.63;5.05;;;10.40;99.90;;;;;;4375205;32;20179;-73
2021/10/02 08:43:37;;;;;;;8.15;5.15;;;10.50;99.90;;;;;;4374431;32;20085;-66
2021/10/02 08:46:06;;;;;;;9.00;5.87;;;10.50;99.90;;;;;;4374306;32;20097;-64
2021/10/02 08:48:33;;;;;;;7.20;4.72;;;10.50;99.90;;;;;;4357983;32;20161;-64
2021/10/02 08:51:04;;;;;;;9.88;5.85;;;10.80;99.90;;;;;;4352132;32;20151;-63
2021/10/02 08:53:31;;;;;;;8.98;5.82;;;10.70;99.90;;;;;;4349811;32;20096;-64
2021/10/02 08:55:58;;;;;;;6.22;4.70;;;10.50;99.90;;;;;;4364555;32;20459;-63
2021/10/02 08:58:25;;;;;;;8.38;5.15;;;10.90;99.90;;;;;;4352065;32;20156;-63
2021/10/02 09:00:51;;;;;;;7.78;5.35;;;10.90;99.90;;;;;;4352147;32;20492;-64
2021/10/02 09:03:19;;;;;;;10.60;5.35;;;10.90;99.90;;;;;;4375784;32;20456;-64
2021/10/02 09:05:46;;;;;;;8.23;5.57;;;10.90;99.90;;;;;;4378178;32;20516;-64
2021/10/02 09:08:13;;;;;;;6.80;4.87;;;10.70;99.90;;;;;;4354040;32;20509;-63
2021/10/02 09:10:39;;;;;;;9.77;5.90;;;10.60;99.90;;;;;;4346693;32;20116;-65
2021/10/02 09:13:07;;;;;;;10.45;7.07;;;10.60;99.90;;;;;;4385696;32;20519;-64
2021/10/02 09:15:33;;;;;;;7.75;5.07;;;10.40;99.90;;;;;;4382988;32;20093;-63
2021/10/02 09:18:00;;;;;;;8.43;5.25;;;10.50;99.90;;;;;;4349783;32;20086;-66
2021/10/02 09:20:27;;;;;;;9.23;5.93;;;10.30;99.90;;;;;;4363192;32;20154;-64
2021/10/02 09:23:15;;;;;;;10.57;5.75;;;10.40;99.90;;;;;;4350965;32;20085;-63
2021/10/02 09:25:46;;;;;;;9.75;5.45;;;10.40;99.90;;;;;;4377416;32;20082;-63
2021/10/02 09:28:14;;;;;;;10.23;5.10;;;10.40;99.90;;;;;;4362772;32;20081;-65
2021/10/02 09:30:43;;;;;;;6.55;4.62;;;10.30;99.90;;;;;;4378498;32;20152;-64
2021/10/02 09:33:20;;;;;;;8.75;5.35;;;10.40;99.90;;;;;;4376508;32;20477;-65
2021/10/02 09:35:46;;;;;;;8.50;5.50;;;10.20;99.90;;;;;;4367685;32;20062;-64
2021/10/02 09:38:18;;;;;;;9.90;5.55;;;10.30;99.90;;;;;;4363270;32;20070;-64
2021/10/02 09:40:59;;;;;;;9.10;5.97;;;10.30;99.90;;;;;;4377672;32;20162;-64
2021/10/02 09:43:26;;;;;;;9.00;5.22;;;10.30;99.90;;;;;;4365052;32;20109;-65
2021/10/02 09:45:53;;;;;;;7.25;4.65;;;10.40;99.90;;;;;;4377466;32;20082;-66
2021/10/02 09:48:31;;;;;;;6.90;4.10;;;10.20;99.90;;;;;;4353248;32;20598;-64
2021/10/02 09:51:06;;;;;;;10.30;5.68;;;10.00;99.90;;;;;;4353941;32;20101;-65
2021/10/02 09:53:42;;;;;;;7.78;5.03;;;10.00;99.90;;;;;;4379126;32;20085;-65
2021/10/02 09:56:11;;;;;;;8.50;5.87;;;10.10;99.90;;;;;;4367954;32;20477;-64
2021/10/02 09:58:37;;;;;;;5.75;3.20;;;10.10;99.90;;;;;;4367678;32;20173;-66
2021/10/02 10:01:05;;;;;;;6.65;4.07;;;10.00;99.90;;;;;;4367262;32;20504;-67
2021/10/02 10:03:44;;;;;;;8.07;4.25;;;9.80;99.90;;;;;;4367525;32;20073;-66
2021/10/02 10:06:25;;;;;;;7.68;4.18;;;9.80;99.90;;;;;;4368253;32;20166;-64
2021/10/02 10:09:09;;;;;;;9.93;4.47;;;9.70;99.90;;;;;;4368083;32;20077;-65
2021/10/02 10:11:47;;;;;;;7.78;4.00;;;9.90;99.90;;;;;;4380488;32;20101;-65
2021/10/02 10:14:24;;;;;;;8.63;5.22;;;9.90;99.90;;;;;;4380173;32;20092;-64
2021/10/02 10:16:56;;;;;;;9.82;4.35;;;9.90;99.90;;;;;;4380332;32;20090;-65
2021/10/02 10:19:31;;;;;;;8.88;5.87;;;9.90;99.90;;;;;;4380180;32;20085;-64
2021/10/02 10:22:21;;;;;;;9.27;4.83;;;9.80;99.90;;;;;;4367051;32;20078;-65
2021/10/02 10:24:59;;;;;;;9.13;5.57;;;9.80;99.90;;;;;;4367747;32;20180;-65
2021/10/02 10:27:46;;;;;;;9.55;5.05;;;9.60;99.90;;;;;;4380184;32;20093;-65
2021/10/02 10:30:22;;;;;;;7.75;4.35;;;9.60;99.90;;;;;;4367378;32;20468;-65
2021/10/02 10:33:03;;;;;;;6.90;4.22;;;9.70;99.90;;;;;;4380451;32;20069;-64
2021/10/02 10:35:35;;;;;;;10.75;4.93;;;9.70;99.90;;;;;;4367756;32;20074;-65
2021/10/02 10:38:02;;;;;;;9.73;4.50;;;9.60;99.90;;;;;;4379831;32;20073;-65
2021/10/02 10:40:28;;;;;;;8.27;4.30;;;9.40;99.90;;;;;;4366821;32;20093;-65
2021/10/02 10:45:09;;;;;;;10.88;4.80;;;9.60;99.90;;;;;;3832110;37;20544;-65
2021/10/02 10:47:37;;;;;;;7.80;4.22;;;9.40;99.90;;;;;;4354010;32;20079;-65
2021/10/02 10:50:04;;;;;;;8.73;4.93;;;9.40;99.90;;;;;;4390406;32;20529;-65
2021/10/02 10:52:40;;;;;;;9.25;5.15;;;9.60;99.90;;;;;;4353225;32;20154;-64
2021/10/02 10:55:25;;;;;;;8.57;5.28;;;9.70;99.90;;;;;;4365818;32;20073;-65
2021/10/02 10:57:56;;;;;;;7.30;4.28;;;9.50;99.90;;;;;;4367911;32;20149;-64
2021/10/02 11:00:41;;;;;;;8.38;5.15;;;9.70;99.90;;;;;;4381007;32;20084;-65
2021/10/02 11:03:08;;;;;;;8.68;5.15;;;9.60;99.90;;;;;;4368067;32;20104;-63
2021/10/02 11:05:39;;;;;;;7.80;4.20;;;9.60;99.90;;;;;;4365643;32;20078;-64
2021/10/02 11:08:09;;;;;;;4.93;3.33;;;9.70;99.90;;;;;;4390808;32;20169;-64
2021/10/02 11:10:44;;;;;;;6.53;3.75;;;9.60;99.90;;;;;;4378765;32;20087;-66
2021/10/02 11:13:19;;;;;;;6.03;3.03;;;9.60;99.90;;;;;;4390174;32;20089;-65
2021/10/02 11:15:46;;;;;;;6.37;3.95;;;9.60;99.90;;;;;;4378034;32;20512;-64
2021/10/02 11:18:45;;;;;;;6.35;4.05;;;9.60;99.90;;;;;;4353231;32;20504;-65
2021/10/02 11:21:17;;;;;;;8.93;3.33;;;9.60;99.90;;;;;;4377389;32;20057;-65
2021/10/02 11:24:08;;;;;;;6.55;3.80;;;9.80;99.90;;;;;;4377989;32;20169;-64
2021/10/02 11:26:43;;;;;;;6.25;3.97;;;9.70;99.90;;;;;;4372349;32;20070;-69
2021/10/02 11:29:22;;;;;;;7.62;4.20;;;10.00;99.90;;;;;;4336322;32;20071;-71
2021/10/02 11:31:51;;;;;;;6.85;3.80;;;9.70;99.90;;;;;;4336093;32;20078;-65
2021/10/02 11:34:22;;;;;;;6.45;4.03;;;9.70;99.90;;;;;;4360800;32;20234;-64
2021/10/02 11:36:56;;;;;;;7.22;4.25;;;9.80;99.90;;;;;;4362603;32;20062;-73
2021/10/02 11:39:31;;;;;;;7.70;4.55;;;9.60;99.90;;;;;;4367967;32;20058;-70
2021/10/02 11:42:06;;;;;;;7.68;4.68;;;9.70;99.90;;;;;;4349372;32;20082;-66
2021/10/02 11:44:32;;;;;;;12.52;5.18;;;9.70;99.90;;;;;;4360137;32;20116;-67
2021/10/02 11:47:38;;;;;;;7.37;4.10;;;9.80;99.90;;;;;;4357711;32;20166;-69
2021/10/02 11:50:07;;;;;;;7.22;4.45;;;9.60;99.90;;;;;;4353021;32;20175;-68
2021/10/02 11:52:57;;;;;;;12.75;4.72;;;9.60;99.90;;;;;;4357411;32;20139;-70
2021/10/02 11:55:35;;;;;;;7.50;4.95;;;9.80;99.90;;;;;;4356620;32;20582;-64
2021/10/02 11:58:08;;;;;;;9.82;5.30;;;10.10;99.90;;;;;;4354541;32;20442;-63
2021/10/02 12:00:38;;;;;;;8.45;4.80;;;9.90;99.90;;;;;;4349096;32;20082;-63
2021/10/02 12:03:06;;;;;;;7.45;3.95;;;9.80;99.90;;;;;;4350039;32;20162;-66
2021/10/02 12:05:32;;;;;;;10.18;4.07;;;9.70;99.90;;;;;;4345798;32;20146;-65
2021/10/02 12:07:59;;;;;;;7.07;4.07;;;9.70;99.90;;;;;;4331697;32;20501;-65
2021/10/02 12:10:26;;;;;;;6.62;4.00;;;9.70;99.90;;;;;;4336434;32;20098;-64
2021/10/02 12:12:53;;;;;;;6.53;3.85;;;9.90;99.90;;;;;;4334865;32;20086;-65
2021/10/02 12:15:33;;;;;;;7.95;4.68;;;10.00;99.90;;;;;;4333274;32;20187;-64
2021/10/02 12:17:59;;;;;;;7.70;4.43;;;9.90;99.90;;;;;;4341200;32;20178;-64
2021/10/02 12:20:41;;;;;;;7.18;4.90;;;9.70;99.90;;;;;;4353616;32;20101;-64
2021/10/02 12:23:09;;;;;;;8.70;4.75;;;9.80;99.90;;;;;;4347822;32;20167;-65
2021/10/02 12:25:36;;;;;;;9.02;4.90;;;9.70;99.90;;;;;;4328384;32;20167;-66
2021/10/02 12:28:04;;;;;;;7.45;4.53;;;9.70;99.90;;;;;;4351807;32;20078;-66
2021/10/02 12:30:30;;;;;;;9.27;5.55;;;9.70;99.90;;;;;;4329196;32;20498;-67
2021/10/02 12:32:58;;;;;;;11.95;5.15;;;9.90;99.90;;;;;;4340278;32;20090;-66
2021/10/02 12:35:25;;;;;;;10.77;5.85;;;9.90;99.90;;;;;;4329658;32;20069;-66
2021/10/02 12:37:52;;;;;;;8.55;4.72;;;9.80;99.90;;;;;;4336524;32;20164;-65
2021/10/02 12:40:19;;;;;;;9.05;5.10;;;9.80;99.90;;;;;;4328931;32;20181;-65
2021/10/02 12:42:54;;;;;;;9.35;5.03;;;9.80;99.90;;;;;;4358603;32;20573;-67
2021/10/02 12:45:29;;;;;;;12.30;7.57;;;9.80;99.90;;;;;;4348107;32;20101;-67
2021/10/02 12:48:01;;;;;;;12.05;6.85;;;9.80;99.90;;;;;;4340202;32;20464;-65
2021/10/02 12:50:39;;;;;;;12.70;7.12;;;9.70;99.90;;;;;;4348827;32;20093;-69
2021/10/02 12:53:05;;;;;;;13.07;7.62;;;9.70;99.90;;;;;;4344491;32;20545;-66
2021/10/02 12:55:31;;;;;;;14.82;8.35;;;9.70;99.90;;;;;;4338950;32;20062;-65
2021/10/02 12:57:57;;;;;;;10.90;6.80;;;9.70;99.90;;;;;;4346354;32;20078;-70
2021/10/02 13:00:31;;;;;;;10.75;6.43;;;9.80;99.90;;;;;;4364909;32;20074;-66
2021/10/02 13:03:00;;;;;;;12.02;6.12;;;9.70;99.90;;;;;;4330096;32;20094;-65
2021/10/02 13:05:29;;;;;;;8.45;5.47;;;9.90;99.90;;;;;;4352837;32;20074;-65
2021/10/02 13:07:58;;;;;;;10.90;5.62;;;9.70;99.90;;;;;;4342623;32;20526;-68
2021/10/02 13:10:27;;;;;;;9.98;5.93;;;9.70;99.90;;;;;;4335803;32;20104;-66
2021/10/02 13:13:07;;;;;;;9.57;6.10;;;9.90;99.90;;;;;;4344698;32;20514;-65
2021/10/02 13:15:40;;;;;;;11.95;7.10;;;10.00;99.90;;;;;;4347670;32;20102;-67
2021/10/02 13:18:12;;;;;;;11.88;6.55;;;9.80;99.90;;;;;;4347611;32;20505;-66
2021/10/02 13:20:41;;;;;;;10.65;5.32;;;9.80;99.90;;;;;;4348543;32;20082;-65
2021/10/02 13:23:12;;;;;;;10.60;5.93;;;9.80;99.90;;;;;;4362127;32;20082;-65
2021/10/02 13:25:56;;;;;;;9.93;5.60;;;9.90;99.90;;;;;;4324410;32;20093;-65
2021/10/02 13:28:26;;;;;;;11.35;5.80;;;9.70;99.90;;;;;;4326149;32;20097;-64
2021/10/02 13:30:54;;;;;;;11.80;6.22;;;9.70;99.90;;;;;;4336380;32;20074;-65
2021/10/02 13:33:20;;;;;;;12.45;6.05;;;9.70;99.90;;;;;;4335748;32;20619;-66
2021/10/02 13:35:58;;;;;;;10.75;5.28;;;9.80;99.90;;;;;;4323080;32;20461;-65
2021/10/02 13:38:41;;;;;;;9.52;6.20;;;9.90;99.90;;;;;;4335677;32;20163;-64
2021/10/02 13:41:16;;;;;;;13.93;6.50;;;9.80;99.90;;;;;;4349284;32;20180;-65
2021/10/02 13:43:56;;;;;;;13.50;6.80;;;9.80;99.90;;;;;;4326831;32;20082;-65
2021/10/02 13:46:37;;;;;;;12.45;7.80;;;9.60;99.90;;;;;;4351305;32;20151;-72
2021/10/02 13:49:10;;;;;;;11.48;7.20;;;9.80;99.90;;;;;;4341347;32;20509;-65
2021/10/02 13:51:36;;;;;;;11.77;6.82;;;10.00;99.90;;;;;;4340370;32;20077;-64
2021/10/02 13:54:03;;;;;;;12.00;6.78;;;10.00;99.90;;;;;;4336034;32;20083;-64
2021/10/02 13:56:43;;;;;;;12.75;6.12;;;9.90;99.90;;;;;;4323700;32;20090;-67